Flight Track Log - Related Links

Times and Time Zones

All times are in EDT time to prevent confusion due to time zone crossing. See the AWI3725 flight status page for this flight to view local times or setup timezone preferences in your user account.

Time Position Orientation Groundspeed Altitude Reporting Facility
EDT Latitude Longitude Course Direction KTS MPH feet Rate Location/Type
Sat 12:23:59 PM 35.2372 -80.9569 North 162 186 1,700  Level Atlanta Center
Sat 12:24:24 PM 35.2542 -80.9664 336° Northwest 170 196 2,400 1,792 Climbing Atlanta Center
Sat 12:25:16 PM 35.2969 -81.0106 320° Northwest 246 283 4,000 1,970 Climbing Atlanta Center
Sat 12:25:31 PM 35.3136 -81.0100 North 262 302 4,600 2,949 Climbing Atlanta Center
Sat 12:26:00 PM 35.4789 -81.0502 343° North  Level Estimated
Sat 12:26:15 PM 35.3675 -80.9928 15° North 290 334 6,900  Level Atlanta Center
Sat 12:27:00 PM 35.5578 -80.9908 31° Northeast  Level FlightAware Approximate
Sat 12:27:16 PM 35.4400 -80.9722 13° North 285 328 9,800  Level Atlanta Center
Sat 12:28:00 PM 35.6367 -80.9312 32° Northeast  Level FlightAware Approximate
Sat 12:28:16 PM 35.5228 -80.9486 13° North 280 322 11,200  Level Atlanta Center
Sat 12:29:00 PM 35.7243 -80.9683 North  Level Estimated
Sat 12:29:16 PM 35.6139 -80.9172 16° North 307 353 13,200  Level Atlanta Center
Sat 12:30:16 PM 35.7094 -80.9033 North 328 377 14,500 1,500 Climbing Atlanta Center
Sat 12:31:16 PM 35.8042 -80.9381 343° North 338 389 16,200 1,613 Climbing Atlanta Center
Sat 12:32:15 PM 35.8947 -80.9706 344° North 353 406 17,700 908 Climbing Atlanta Center
Sat 12:33:15 PM 35.9894 -81.0053 343° North 364 419 18,000 942 Climbing Atlanta Center
Sat 12:34:16 PM 36.0883 -81.0375 345° North 364 419 19,600 1,488 Climbing Atlanta Center
Sat 12:35:16 PM 36.1850 -81.0725 344° North 364 419 21,000 1,361 Climbing Atlanta Center
Sat 12:36:15 PM 36.2819 -81.1078 344° North 364 419 22,300 1,361 Climbing Atlanta Center
Sat 12:37:15 PM 36.3786 -81.1456 343° North 369 425 23,700 1,289 Climbing Atlanta Center
Sat 12:38:16 PM 36.4797 -81.1781 346° North 364 419 24,900 738 Climbing Atlanta Center
Sat 12:40:22 PM 36.6792 -81.2517 344° North 364 419 26,000 353 Climbing Indianapolis Center
Sat 12:41:23 PM 36.7739 -81.2864 344° North 364 419 26,000  Level Indianapolis Center
Sat 12:42:24 PM 36.8703 -81.3208 344° North 364 419 26,000  Level Indianapolis Center
Sat 12:43:24 PM 36.9839 -81.3622 344° North 364 419 26,000  Level Indianapolis Center
Sat 12:44:26 PM 37.0697 -81.3933 344° North 364 419 26,000  Level Indianapolis Center
Sat 12:45:26 PM 37.1839 -81.4358 343° North 365 420 26,000  Level Indianapolis Center
Sat 12:46:28 PM 37.2825 -81.4719 344° North 365 420 26,000  Level Indianapolis Center
Sat 12:47:32 PM 37.3800 -81.5078 344° North 365 420 26,000  Level Indianapolis Center
Sat 12:48:31 PM 37.4797 -81.5447 344° North 366 421 26,000  Level Indianapolis Center
Sat 12:49:34 PM 37.5778 -81.5814 343° North 367 422 26,000  Level Indianapolis Center
Sat 12:50:35 PM 37.6769 -81.6181 344° North 367 422 26,000  Level Indianapolis Center
Sat 12:51:36 PM 37.7756 -81.6553 343° North 367 422 26,000  Level Indianapolis Center
Sat 12:52:37 PM 37.8792 -81.6939 344° North 367 422 26,000  Level Indianapolis Center
Sat 12:53:41 PM 37.9769 -81.7292 344° North 366 421 26,000  Level Indianapolis Center
Sat 12:54:42 PM 38.0747 -81.7667 343° North 366 421 26,000 -590 Level Indianapolis Center
Sat 12:55:43 PM 38.1750 -81.8042 344° North 368 423 24,800 -992 Descending Indianapolis Center
Sat 12:56:43 PM 38.2958 -81.8508 343° North 374 430 24,000 -384 Descending Indianapolis Center
Sat 12:57:48 PM 38.3933 -81.8881 343° North 369 425 24,000  Level Indianapolis Center
Sat 12:58:49 PM 38.4894 -81.9250 343° North 361 415 24,000  Level Indianapolis Center
Sat 12:59:49 PM 38.5869 -81.9603 344° North 361 415 24,000 -195 Level Indianapolis Center
Sat 01:00:52 PM 38.6842 -81.9992 343° North 361 415 23,600 -823 Descending Indianapolis Center
Sat 01:01:53 PM 38.7853 -82.0378 343° North 370 426 22,300 -1,328 Descending Indianapolis Center
Sat 01:02:54 PM 38.8836 -82.0753 343° North 370 426 20,900 -1,392 Descending Indianapolis Center
Sat 01:03:58 PM 38.9806 -82.1142 343° North 366 421 19,400 -1,452 Descending Indianapolis Center
Sat 01:04:58 PM 39.0781 -82.1528 343° North 366 421 17,900 -1,438 Descending Indianapolis Center
Sat 01:05:59 PM 39.1731 -82.1897 343° North 362 417 16,500 -1,463 Descending Indianapolis Center
Sat 01:07:01 PM 39.2844 -82.2342 343° North 353 406 14,900 -1,344 Descending Indianapolis Center
Sat 01:08:04 PM 39.3758 -82.2717 342° North 348 400 13,700 -1,175 Descending Indianapolis Center
Sat 01:08:38 PM 39.4308 -82.2967 341° North 349 402 13,000 -1,269 Descending Indianapolis Center
Sat 01:08:56 PM 39.4594 -82.3064 345° North 350 403 12,600 -1,200 Descending Indianapolis Center
Sat 01:09:58 PM 39.5464 -82.3411 343° North 328 377 11,400 -1,279 Descending Indianapolis Center
Sat 01:10:58 PM 39.6169 -82.3736 340° North 262 302 10,000 -1,250 Descending Indianapolis Center
Sat 01:11:10 PM 39.6242 -82.3742 357° North 282 325 9,900 -1,574 Descending Indianapolis Center
Sat 01:11:59 PM 39.6900 -82.4036 341° North 269 310 8,400 -1,574 Descending Indianapolis Center
Sat 01:12:11 PM 39.6975 -82.4031 North 277 319 8,300 -1,800 Descending Indianapolis Center
Sat 01:12:59 PM 39.7625 -82.4364 338° Northwest 273 314 6,600 -1,869 Descending Indianapolis Center
Sat 01:13:12 PM 39.7683 -82.4367 358° North 276 318 6,400 -1,967 Descending Indianapolis Center
Sat 01:14:00 PM 39.8219 -82.4972 319° Northwest 253 291 4,600 -2,000 Descending Indianapolis Center
Sat 01:14:15 PM 39.8339 -82.5078 326° Northwest 261 300 4,300 -563 Descending Indianapolis Center
Sat 01:15:04 PM 39.8731 -82.5594 315° West 252 290 4,000 -295 Descending Indianapolis Center
Sat 01:15:16 PM 39.8831 -82.5711 318° Northwest 253 291 4,000 -828 Level Indianapolis Center
Sat 01:16:02 PM 39.9219 -82.6217 315° West 239 275 3,200 -984 Descending Indianapolis Center
Sat 01:16:17 PM 39.9311 -82.6300 325° Northwest 249 287 3,000 -484 Descending Indianapolis Center
Sat 01:17:04 PM 39.9567 -82.6761 306° West 191 220 2,700 -290 Descending Indianapolis Center
Sat 01:17:19 PM 39.9664 -82.6844 327° Northwest 224 258 2,700  Level Indianapolis Center
Sat 01:18:05 PM 39.9878 -82.7275 303° West 181 208 2,700 -98 Level Indianapolis Center
Sat 01:18:20 PM 39.9939 -82.7381 307° West 199 229 2,600 -400 Descending Indianapolis Center
Sat 01:19:05 PM 39.9950 -82.7858 272° West 143 165 2,300 -381 Descending Indianapolis Center
Sat 01:19:23 PM 39.9967 -82.7914 291° West 165 190 2,200 -787 Descending Indianapolis Center
Sat 01:20:06 PM 39.9986 -82.8356 273° West 131 151 1,500 -689 Descending Indianapolis Center
Sat 01:20:24 PM 39.9997 -82.8403 287° West 146 168 1,500 -222 Level Indianapolis Center
Sat 01:21:27 PM 40.0036 -82.9000 275° West 143 165 1,200 -286 Descending Indianapolis Center

Login

Don't have an account? Register now (free) for customized features, flight alerts, and more!